Dati Storici

Data ora Umidita' aria (%) Temperatura aria (°C) Rad globale (W/m²) Gonioanemometro (°) Tacoanemometro (m/s) Pioggia (mm)
29-06-2020 08:50 69.3 % 28.842 327.14 1.889 0 0
29-06-2020 08:40 71 % 28.287 6.24 -0.047 0 0
29-06-2020 08:30 73.7 % 27.756 330.173 0.397 0 0
29-06-2020 08:20 76.5 % 27.241 13.594 0.993 0 0
29-06-2020 08:10 82.3 % 26.556 99.796 0.681 0 0
29-06-2020 08:00 86.5 % 26.331 38.719 1.138 0 0
29-06-2020 07:50 88.2 % 25.95 51.181 0.789 0 0
29-06-2020 07:40 91.2 % 25.614 28.726 1.511 0 0
29-06-2020 07:30 93.7 % 24.918 36.619 2.03 0 0
29-06-2020 07:20 95.3 % 24.755 10.844 1.977 0 0
29-06-2020 07:10 95.3 % 24.518 -0.252 2.003 0 0
29-06-2020 07:00 95.6 % 24.028 22.487 2.448 0 0
29-06-2020 06:50 96.1 % 23.597 10.832 0.671 0 0
29-06-2020 06:40 97.2 % 23.4 33.719 2.369 0 0
29-06-2020 06:30 97.5 % 23.301 332.09 1.27 0 0
29-06-2020 06:20 97.5 % 22.974 49.278 2.006 0 0
29-06-2020 06:10 97.5 % 22.952 20.623 -0 0 0
29-06-2020 06:00 97.5 % 22.4 6.561 1.036 0 0
29-06-2020 05:50 97.5 % 22.334 32.704 1.802 0 0
29-06-2020 05:40 97.6 % 22.455 17.191 1.711 0 0

I dati sono presentati in modo automatico a scopo informativo. In seguito a verifica i dati possono subire modifiche o essere invalidati e non riportati negli archivi definitivi.